sensor_id;sensor_type;location;lat;lon;timestamp;P1;durP1;ratioP1;P2;durP2;ratioP2
66567;SDS011;53422;49.296;6.900;2022-12-05T00:03:42;16.33;;;5.07;;
66567;SDS011;53422;49.296;6.900;2022-12-05T00:06:08;13.50;;;5.15;;
66567;SDS011;53422;49.296;6.900;2022-12-05T00:08:33;14.20;;;5.13;;
66567;SDS011;53422;49.296;6.900;2022-12-05T00:10:59;12.90;;;4.75;;
66567;SDS011;53422;49.296;6.900;2022-12-05T00:13:25;10.68;;;4.10;;
66567;SDS011;53422;49.296;6.900;2022-12-05T00:15:50;11.10;;;4.43;;
66567;SDS011;53422;49.296;6.900;2022-12-05T00:18:16;11.75;;;4.40;;
66567;SDS011;53422;49.296;6.900;2022-12-05T00:20:45;10.18;;;4.13;;
66567;SDS011;53422;49.296;6.900;2022-12-05T00:23:13;8.77;;;3.65;;
66567;SDS011;53422;49.296;6.900;2022-12-05T00:25:39;8.68;;;5.13;;
66567;SDS011;53422;49.296;6.900;2022-12-05T00:28:05;13.68;;;5.00;;
66567;SDS011;53422;49.296;6.900;2022-12-05T00:30:31;15.63;;;6.32;;
66567;SDS011;53422;49.296;6.900;2022-12-05T00:32:57;12.10;;;5.22;;
66567;SDS011;53422;49.296;6.900;2022-12-05T00:35:23;9.75;;;4.18;;
66567;SDS011;53422;49.296;6.900;2022-12-05T00:37:48;12.68;;;4.32;;
66567;SDS011;53422;49.296;6.900;2022-12-05T00:40:14;11.23;;;4.63;;
66567;SDS011;53422;49.296;6.900;2022-12-05T00:42:40;8.98;;;3.88;;
66567;SDS011;53422;49.296;6.900;2022-12-05T00:45:06;9.35;;;4.07;;
66567;SDS011;53422;49.296;6.900;2022-12-05T00:47:35;9.50;;;3.75;;
66567;SDS011;53422;49.296;6.900;2022-12-05T00:50:01;10.38;;;4.55;;
66567;SDS011;53422;49.296;6.900;2022-12-05T00:52:28;8.85;;;3.67;;
66567;SDS011;53422;49.296;6.900;2022-12-05T00:54:54;8.52;;;3.85;;
66567;SDS011;53422;49.296;6.900;2022-12-05T00:57:19;10.52;;;3.90;;
66567;SDS011;53422;49.296;6.900;2022-12-05T00:59:45;11.98;;;4.32;;
66567;SDS011;53422;49.296;6.900;2022-12-05T01:02:11;9.88;;;4.13;;
66567;SDS011;53422;49.296;6.900;2022-12-05T01:04:37;7.90;;;3.38;;
66567;SDS011;53422;49.296;6.900;2022-12-05T01:07:02;10.50;;;3.70;;
66567;SDS011;53422;49.296;6.900;2022-12-05T01:09:28;7.93;;;3.47;;
66567;SDS011;53422;49.296;6.900;2022-12-05T01:11:54;7.20;;;3.22;;
66567;SDS011;53422;49.296;6.900;2022-12-05T01:14:21;7.38;;;2.80;;
66567;SDS011;53422;49.296;6.900;2022-12-05T01:19:19;6.80;;;2.58;;
66567;SDS011;53422;49.296;6.900;2022-12-05T01:21:47;9.15;;;3.35;;
66567;SDS011;53422;49.296;6.900;2022-12-05T01:24:13;10.32;;;3.80;;
66567;SDS011;53422;49.296;6.900;2022-12-05T01:26:40;8.57;;;3.83;;
66567;SDS011;53422;49.296;6.900;2022-12-05T01:29:06;8.23;;;3.33;;
66567;SDS011;53422;49.296;6.900;2022-12-05T01:31:33;8.68;;;3.72;;
66567;SDS011;53422;49.296;6.900;2022-12-05T01:34:00;10.95;;;4.22;;
66567;SDS011;53422;49.296;6.900;2022-12-05T01:36:27;6.72;;;2.75;;
66567;SDS011;53422;49.296;6.900;2022-12-05T01:38:53;8.13;;;3.08;;
66567;SDS011;53422;49.296;6.900;2022-12-05T01:41:21;7.47;;;3.00;;
66567;SDS011;53422;49.296;6.900;2022-12-05T01:46:35;8.32;;;3.67;;
66567;SDS011;53422;49.296;6.900;2022-12-05T01:49:04;10.80;;;3.30;;
66567;SDS011;53422;49.296;6.900;2022-12-05T01:51:39;7.68;;;2.88;;
66567;SDS011;53422;49.296;6.900;2022-12-05T01:54:09;7.18;;;2.95;;
66567;SDS011;53422;49.296;6.900;2022-12-05T01:56:35;5.22;;;2.58;;
66567;SDS011;53422;49.296;6.900;2022-12-05T01:59:02;5.82;;;2.47;;
66567;SDS011;53422;49.296;6.900;2022-12-05T02:01:29;10.68;;;4.13;;
66567;SDS011;53422;49.296;6.900;2022-12-05T02:03:56;8.48;;;3.70;;
66567;SDS011;53422;49.296;6.900;2022-12-05T02:06:23;9.38;;;3.28;;
66567;SDS011;53422;49.296;6.900;2022-12-05T02:08:54;7.13;;;3.33;;
66567;SDS011;53422;49.296;6.900;2022-12-05T02:11:20;6.07;;;2.90;;
66567;SDS011;53422;49.296;6.900;2022-12-05T02:17:05;5.68;;;2.47;;
66567;SDS011;53422;49.296;6.900;2022-12-05T02:30:26;6.78;;;2.90;;
66567;SDS011;53422;49.296;6.900;2022-12-05T02:33:22;8.80;;;3.50;;
66567;SDS011;53422;49.296;6.900;2022-12-05T02:38:56;6.30;;;2.72;;
66567;SDS011;53422;49.296;6.900;2022-12-05T02:41:38;5.70;;;2.22;;
66567;SDS011;53422;49.296;6.900;2022-12-05T02:46:44;7.72;;;3.38;;
66567;SDS011;53422;49.296;6.900;2022-12-05T02:49:14;9.98;;;3.00;;
66567;SDS011;53422;49.296;6.900;2022-12-05T02:51:44;6.90;;;2.38;;
66567;SDS011;53422;49.296;6.900;2022-12-05T02:54:13;5.30;;;1.95;;
66567;SDS011;53422;49.296;6.900;2022-12-05T02:56:45;5.13;;;2.40;;
66567;SDS011;53422;49.296;6.900;2022-12-05T02:59:13;5.82;;;2.85;;
66567;SDS011;53422;49.296;6.900;2022-12-05T03:01:39;5.75;;;2.80;;
66567;SDS011;53422;49.296;6.900;2022-12-05T03:04:08;6.85;;;2.65;;
66567;SDS011;53422;49.296;6.900;2022-12-05T03:06:47;6.65;;;2.97;;
66567;SDS011;53422;49.296;6.900;2022-12-05T03:09:23;6.53;;;2.28;;
66567;SDS011;53422;49.296;6.900;2022-12-05T03:14:25;4.10;;;1.90;;
66567;SDS011;53422;49.296;6.900;2022-12-05T03:16:57;5.40;;;2.35;;
66567;SDS011;53422;49.296;6.900;2022-12-05T03:19:31;6.95;;;2.40;;
66567;SDS011;53422;49.296;6.900;2022-12-05T03:22:02;7.75;;;2.50;;
66567;SDS011;53422;49.296;6.900;2022-12-05T03:24:54;4.47;;;2.22;;
66567;SDS011;53422;49.296;6.900;2022-12-05T03:29:56;5.45;;;2.38;;
66567;SDS011;53422;49.296;6.900;2022-12-05T03:37:46;6.70;;;3.08;;
66567;SDS011;53422;49.296;6.900;2022-12-05T03:43:00;8.73;;;3.05;;
66567;SDS011;53422;49.296;6.900;2022-12-05T03:45:37;9.75;;;2.85;;
66567;SDS011;53422;49.296;6.900;2022-12-05T03:51:08;5.90;;;3.03;;
66567;SDS011;53422;49.296;6.900;2022-12-05T03:53:45;11.93;;;3.00;;
66567;SDS011;53422;49.296;6.900;2022-12-05T03:56:29;8.05;;;2.83;;
66567;SDS011;53422;49.296;6.900;2022-12-05T03:59:01;7.82;;;2.40;;
66567;SDS011;53422;49.296;6.900;2022-12-05T04:01:34;8.27;;;2.85;;
66567;SDS011;53422;49.296;6.900;2022-12-05T04:04:04;7.90;;;2.70;;
66567;SDS011;53422;49.296;6.900;2022-12-05T04:06:35;5.95;;;2.45;;
66567;SDS011;53422;49.296;6.900;2022-12-05T04:09:04;9.05;;;3.53;;
66567;SDS011;53422;49.296;6.900;2022-12-05T04:11:36;9.82;;;3.40;;
66567;SDS011;53422;49.296;6.900;2022-12-05T04:14:11;7.95;;;2.88;;
66567;SDS011;53422;49.296;6.900;2022-12-05T04:16:42;8.82;;;3.00;;
66567;SDS011;53422;49.296;6.900;2022-12-05T04:22:30;8.75;;;2.80;;
66567;SDS011;53422;49.296;6.900;2022-12-05T04:24:57;8.05;;;2.97;;
66567;SDS011;53422;49.296;6.900;2022-12-05T04:27:48;7.88;;;2.55;;
66567;SDS011;53422;49.296;6.900;2022-12-05T04:30:16;8.13;;;2.70;;
66567;SDS011;53422;49.296;6.900;2022-12-05T04:35:37;9.60;;;2.85;;
66567;SDS011;53422;49.296;6.900;2022-12-05T04:38:14;9.35;;;3.22;;
66567;SDS011;53422;49.296;6.900;2022-12-05T04:40:52;10.82;;;3.00;;
66567;SDS011;53422;49.296;6.900;2022-12-05T04:43:25;9.48;;;3.20;;
66567;SDS011;53422;49.296;6.900;2022-12-05T04:45:53;8.65;;;3.55;;
66567;SDS011;53422;49.296;6.900;2022-12-05T04:48:21;8.00;;;3.28;;
66567;SDS011;53422;49.296;6.900;2022-12-05T04:50:49;10.07;;;3.45;;
66567;SDS011;53422;49.296;6.900;2022-12-05T04:53:17;8.13;;;3.17;;
66567;SDS011;53422;49.296;6.900;2022-12-05T04:55:45;10.38;;;3.25;;
66567;SDS011;53422;49.296;6.900;2022-12-05T04:58:18;9.40;;;3.47;;
66567;SDS011;53422;49.296;6.900;2022-12-05T05:01:06;6.30;;;2.50;;
66567;SDS011;53422;49.296;6.900;2022-12-05T05:03:42;8.57;;;3.03;;
66567;SDS011;53422;49.296;6.900;2022-12-05T05:06:10;7.50;;;3.00;;
66567;SDS011;53422;49.296;6.900;2022-12-05T05:08:44;7.80;;;2.85;;
66567;SDS011;53422;49.296;6.900;2022-12-05T05:11:22;6.82;;;2.35;;
66567;SDS011;53422;49.296;6.900;2022-12-05T05:13:49;7.30;;;2.72;;
66567;SDS011;53422;49.296;6.900;2022-12-05T05:16:16;7.05;;;2.65;;
66567;SDS011;53422;49.296;6.900;2022-12-05T05:18:47;8.60;;;3.15;;
66567;SDS011;53422;49.296;6.900;2022-12-05T05:21:15;8.93;;;2.70;;
66567;SDS011;53422;49.296;6.900;2022-12-05T05:23:47;9.25;;;3.65;;
66567;SDS011;53422;49.296;6.900;2022-12-05T05:26:13;7.45;;;2.90;;
66567;SDS011;53422;49.296;6.900;2022-12-05T05:28:39;6.03;;;2.75;;
66567;SDS011;53422;49.296;6.900;2022-12-05T05:31:05;8.23;;;3.03;;
66567;SDS011;53422;49.296;6.900;2022-12-05T05:33:32;9.43;;;2.90;;
66567;SDS011;53422;49.296;6.900;2022-12-05T05:36:02;7.90;;;2.72;;
66567;SDS011;53422;49.296;6.900;2022-12-05T05:38:29;8.10;;;2.83;;
66567;SDS011;53422;49.296;6.900;2022-12-05T05:40:55;11.00;;;3.72;;
66567;SDS011;53422;49.296;6.900;2022-12-05T05:43:20;10.52;;;4.03;;
66567;SDS011;53422;49.296;6.900;2022-12-05T05:45:46;9.40;;;3.88;;
66567;SDS011;53422;49.296;6.900;2022-12-05T05:48:11;8.57;;;3.35;;
66567;SDS011;53422;49.296;6.900;2022-12-05T05:50:37;11.73;;;3.20;;
66567;SDS011;53422;49.296;6.900;2022-12-05T05:53:03;10.02;;;3.50;;
66567;SDS011;53422;49.296;6.900;2022-12-05T05:55:28;7.75;;;2.78;;
66567;SDS011;53422;49.296;6.900;2022-12-05T05:57:54;8.77;;;3.78;;
66567;SDS011;53422;49.296;6.900;2022-12-05T06:00:19;7.80;;;2.72;;
66567;SDS011;53422;49.296;6.900;2022-12-05T06:02:45;9.05;;;3.15;;
66567;SDS011;53422;49.296;6.900;2022-12-05T06:05:11;11.73;;;3.78;;
66567;SDS011;53422;49.296;6.900;2022-12-05T06:07:36;13.13;;;3.58;;
66567;SDS011;53422;49.296;6.900;2022-12-05T06:10:02;8.50;;;3.30;;
66567;SDS011;53422;49.296;6.900;2022-12-05T06:12:28;8.75;;;3.15;;
66567;SDS011;53422;49.296;6.900;2022-12-05T06:14:54;11.23;;;3.72;;
66567;SDS011;53422;49.296;6.900;2022-12-05T06:17:20;8.93;;;3.58;;
66567;SDS011;53422;49.296;6.900;2022-12-05T06:19:46;10.00;;;3.28;;
66567;SDS011;53422;49.296;6.900;2022-12-05T06:22:11;8.93;;;2.80;;
66567;SDS011;53422;49.296;6.900;2022-12-05T06:24:37;11.48;;;4.00;;
66567;SDS011;53422;49.296;6.900;2022-12-05T06:27:03;9.43;;;3.42;;
66567;SDS011;53422;49.296;6.900;2022-12-05T06:29:29;12.65;;;4.18;;
66567;SDS011;53422;49.296;6.900;2022-12-05T06:31:54;11.07;;;3.83;;
66567;SDS011;53422;49.296;6.900;2022-12-05T06:34:20;13.82;;;4.10;;
66567;SDS011;53422;49.296;6.900;2022-12-05T06:36:46;10.85;;;3.65;;
66567;SDS011;53422;49.296;6.900;2022-12-05T06:39:11;7.63;;;3.35;;
66567;SDS011;53422;49.296;6.900;2022-12-05T06:41:37;15.68;;;4.70;;
66567;SDS011;53422;49.296;6.900;2022-12-05T06:44:02;9.68;;;3.72;;
66567;SDS011;53422;49.296;6.900;2022-12-05T06:46:28;9.63;;;3.30;;
66567;SDS011;53422;49.296;6.900;2022-12-05T06:48:55;10.10;;;3.47;;
66567;SDS011;53422;49.296;6.900;2022-12-05T06:51:21;7.72;;;2.92;;
66567;SDS011;53422;49.296;6.900;2022-12-05T06:53:48;9.15;;;3.50;;
66567;SDS011;53422;49.296;6.900;2022-12-05T06:56:14;9.48;;;3.40;;
66567;SDS011;53422;49.296;6.900;2022-12-05T06:58:43;10.13;;;2.85;;
66567;SDS011;53422;49.296;6.900;2022-12-05T07:01:14;10.43;;;3.58;;
66567;SDS011;53422;49.296;6.900;2022-12-05T07:04:02;11.98;;;3.50;;
66567;SDS011;53422;49.296;6.900;2022-12-05T07:06:29;9.10;;;3.60;;
66567;SDS011;53422;49.296;6.900;2022-12-05T07:08:54;9.40;;;3.92;;
66567;SDS011;53422;49.296;6.900;2022-12-05T07:11:20;13.18;;;3.50;;
66567;SDS011;53422;49.296;6.900;2022-12-05T07:13:47;12.93;;;5.10;;
66567;SDS011;53422;49.296;6.900;2022-12-05T07:16:13;11.65;;;3.97;;
66567;SDS011;53422;49.296;6.900;2022-12-05T07:18:38;10.48;;;4.13;;
66567;SDS011;53422;49.296;6.900;2022-12-05T07:21:05;10.77;;;3.95;;
66567;SDS011;53422;49.296;6.900;2022-12-05T07:23:34;12.98;;;4.13;;
66567;SDS011;53422;49.296;6.900;2022-12-05T07:26:03;10.68;;;3.95;;
66567;SDS011;53422;49.296;6.900;2022-12-05T07:28:33;10.68;;;3.47;;
66567;SDS011;53422;49.296;6.900;2022-12-05T07:31:00;11.15;;;4.18;;
66567;SDS011;53422;49.296;6.900;2022-12-05T07:33:27;12.38;;;4.20;;
66567;SDS011;53422;49.296;6.900;2022-12-05T07:35:57;13.02;;;4.95;;
66567;SDS011;53422;49.296;6.900;2022-12-05T07:38:27;13.50;;;3.67;;
66567;SDS011;53422;49.296;6.900;2022-12-05T07:40:53;15.82;;;4.43;;
66567;SDS011;53422;49.296;6.900;2022-12-05T07:43:19;13.77;;;4.18;;
66567;SDS011;53422;49.296;6.900;2022-12-05T07:45:45;11.90;;;4.30;;
66567;SDS011;53422;49.296;6.900;2022-12-05T07:48:11;11.48;;;4.07;;
66567;SDS011;53422;49.296;6.900;2022-12-05T07:50:36;10.98;;;4.07;;
66567;SDS011;53422;49.296;6.900;2022-12-05T07:53:02;13.65;;;4.50;;
66567;SDS011;53422;49.296;6.900;2022-12-05T07:55:28;14.13;;;4.70;;
66567;SDS011;53422;49.296;6.900;2022-12-05T07:57:54;13.70;;;4.97;;
66567;SDS011;53422;49.296;6.900;2022-12-05T08:00:19;12.07;;;4.90;;
66567;SDS011;53422;49.296;6.900;2022-12-05T08:02:46;16.17;;;5.53;;
66567;SDS011;53422;49.296;6.900;2022-12-05T08:05:11;12.40;;;4.88;;
66567;SDS011;53422;49.296;6.900;2022-12-05T08:07:37;15.40;;;5.47;;
66567;SDS011;53422;49.296;6.900;2022-12-05T08:10:03;13.25;;;4.38;;
66567;SDS011;53422;49.296;6.900;2022-12-05T08:12:29;18.05;;;5.15;;
66567;SDS011;53422;49.296;6.900;2022-12-05T08:14:55;16.13;;;5.25;;
66567;SDS011;53422;49.296;6.900;2022-12-05T08:17:21;17.50;;;4.78;;
66567;SDS011;53422;49.296;6.900;2022-12-05T08:19:46;17.90;;;6.15;;
66567;SDS011;53422;49.296;6.900;2022-12-05T08:22:12;8.52;;;2.72;;
66567;SDS011;53422;49.296;6.900;2022-12-05T08:24:37;25.20;;;5.90;;
66567;SDS011;53422;49.296;6.900;2022-12-05T08:27:04;15.93;;;5.28;;
66567;SDS011;53422;49.296;6.900;2022-12-05T08:29:30;16.17;;;5.15;;
66567;SDS011;53422;49.296;6.900;2022-12-05T08:31:55;24.88;;;5.43;;
66567;SDS011;53422;49.296;6.900;2022-12-05T08:34:21;23.42;;;5.80;;
66567;SDS011;53422;49.296;6.900;2022-12-05T08:36:47;18.75;;;5.90;;
66567;SDS011;53422;49.296;6.900;2022-12-05T08:39:13;21.65;;;6.95;;
66567;SDS011;53422;49.296;6.900;2022-12-05T08:41:44;18.85;;;6.38;;
66567;SDS011;53422;49.296;6.900;2022-12-05T08:44:12;19.70;;;6.07;;
66567;SDS011;53422;49.296;6.900;2022-12-05T08:46:42;20.58;;;5.85;;
66567;SDS011;53422;49.296;6.900;2022-12-05T08:49:09;20.33;;;6.07;;
66567;SDS011;53422;49.296;6.900;2022-12-05T08:51:36;15.40;;;5.90;;
66567;SDS011;53422;49.296;6.900;2022-12-05T08:54:02;20.25;;;6.10;;
66567;SDS011;53422;49.296;6.900;2022-12-05T08:56:31;15.68;;;5.10;;
66567;SDS011;53422;49.296;6.900;2022-12-05T08:58:57;18.48;;;5.47;;
66567;SDS011;53422;49.296;6.900;2022-12-05T09:01:23;17.27;;;5.85;;
66567;SDS011;53422;49.296;6.900;2022-12-05T09:03:54;21.98;;;7.72;;
66567;SDS011;53422;49.296;6.900;2022-12-05T09:06:21;21.15;;;5.97;;
66567;SDS011;53422;49.296;6.900;2022-12-05T09:08:48;20.05;;;6.32;;
66567;SDS011;53422;49.296;6.900;2022-12-05T09:11:17;23.00;;;6.22;;
66567;SDS011;53422;49.296;6.900;2022-12-05T09:13:45;15.77;;;5.03;;
66567;SDS011;53422;49.296;6.900;2022-12-05T09:16:12;20.70;;;6.22;;
66567;SDS011;53422;49.296;6.900;2022-12-05T09:18:40;7.85;;;3.03;;
66567;SDS011;53422;49.296;6.900;2022-12-05T09:21:07;14.63;;;4.82;;
66567;SDS011;53422;49.296;6.900;2022-12-05T09:23:52;16.65;;;5.32;;
66567;SDS011;53422;49.296;6.900;2022-12-05T09:26:20;16.30;;;6.30;;
66567;SDS011;53422;49.296;6.900;2022-12-05T09:28:48;19.35;;;6.82;;
66567;SDS011;53422;49.296;6.900;2022-12-05T09:31:14;18.65;;;7.00;;
66567;SDS011;53422;49.296;6.900;2022-12-05T09:33:42;4.38;;;2.05;;
66567;SDS011;53422;49.296;6.900;2022-12-05T09:36:13;17.02;;;5.45;;
66567;SDS011;53422;49.296;6.900;2022-12-05T09:38:40;17.52;;;5.28;;
66567;SDS011;53422;49.296;6.900;2022-12-05T09:46:51;18.45;;;5.57;;
66567;SDS011;53422;49.296;6.900;2022-12-05T09:49:26;15.75;;;5.68;;
66567;SDS011;53422;49.296;6.900;2022-12-05T09:51:54;14.65;;;4.68;;
66567;SDS011;53422;49.296;6.900;2022-12-05T09:54:24;15.20;;;4.35;;
66567;SDS011;53422;49.296;6.900;2022-12-05T09:56:50;20.95;;;5.70;;
66567;SDS011;53422;49.296;6.900;2022-12-05T09:59:17;9.40;;;3.97;;
66567;SDS011;53422;49.296;6.900;2022-12-05T10:16:11;12.95;;;5.05;;
66567;SDS011;53422;49.296;6.900;2022-12-05T10:18:47;10.50;;;4.22;;
66567;SDS011;53422;49.296;6.900;2022-12-05T10:21:18;19.38;;;5.72;;
66567;SDS011;53422;49.296;6.900;2022-12-05T10:24:15;13.38;;;4.85;;
66567;SDS011;53422;49.296;6.900;2022-12-05T10:26:48;16.48;;;5.15;;
66567;SDS011;53422;49.296;6.900;2022-12-05T10:31:49;13.10;;;4.45;;
66567;SDS011;53422;49.296;6.900;2022-12-05T10:37:14;12.30;;;4.63;;
66567;SDS011;53422;49.296;6.900;2022-12-05T10:39:40;12.48;;;4.13;;
66567;SDS011;53422;49.296;6.900;2022-12-05T10:42:06;17.00;;;5.13;;
66567;SDS011;53422;49.296;6.900;2022-12-05T10:44:39;14.40;;;4.82;;
66567;SDS011;53422;49.296;6.900;2022-12-05T10:47:05;13.13;;;4.47;;
66567;SDS011;53422;49.296;6.900;2022-12-05T10:49:31;13.40;;;4.15;;
66567;SDS011;53422;49.296;6.900;2022-12-05T10:51:58;12.98;;;4.85;;
66567;SDS011;53422;49.296;6.900;2022-12-05T10:54:25;10.15;;;4.28;;
66567;SDS011;53422;49.296;6.900;2022-12-05T10:56:55;15.25;;;5.20;;
66567;SDS011;53422;49.296;6.900;2022-12-05T10:59:22;15.63;;;4.93;;
66567;SDS011;53422;49.296;6.900;2022-12-05T11:01:51;13.43;;;4.68;;
66567;SDS011;53422;49.296;6.900;2022-12-05T11:06:53;10.65;;;3.85;;
66567;SDS011;53422;49.296;6.900;2022-12-05T11:09:31;8.93;;;3.40;;
66567;SDS011;53422;49.296;6.900;2022-12-05T11:12:04;14.55;;;4.90;;
66567;SDS011;53422;49.296;6.900;2022-12-05T11:14:39;10.10;;;4.18;;
66567;SDS011;53422;49.296;6.900;2022-12-05T11:17:30;14.48;;;4.07;;
66567;SDS011;53422;49.296;6.900;2022-12-05T11:19:56;15.13;;;5.20;;
66567;SDS011;53422;49.296;6.900;2022-12-05T11:22:32;13.50;;;4.63;;
66567;SDS011;53422;49.296;6.900;2022-12-05T11:24:59;12.52;;;4.90;;
66567;SDS011;53422;49.296;6.900;2022-12-05T11:27:29;8.68;;;3.83;;
66567;SDS011;53422;49.296;6.900;2022-12-05T11:32:37;11.50;;;4.38;;
66567;SDS011;53422;49.296;6.900;2022-12-05T11:35:17;10.60;;;5.22;;
66567;SDS011;53422;49.296;6.900;2022-12-05T11:40:34;10.38;;;3.90;;
66567;SDS011;53422;49.296;6.900;2022-12-05T11:48:57;7.38;;;3.35;;
66567;SDS011;53422;49.296;6.900;2022-12-05T11:51:48;8.10;;;3.45;;
66567;SDS011;53422;49.296;6.900;2022-12-05T12:04:51;4.85;;;2.58;;
66567;SDS011;53422;49.296;6.900;2022-12-05T12:10:25;4.80;;;1.90;;
66567;SDS011;53422;49.296;6.900;2022-12-05T12:16:34;6.15;;;3.00;;
66567;SDS011;53422;49.296;6.900;2022-12-05T12:19:09;6.80;;;2.47;;
66567;SDS011;53422;49.296;6.900;2022-12-05T12:36:30;6.53;;;2.28;;
66567;SDS011;53422;49.296;6.900;2022-12-05T12:38:49;5.57;;;2.28;;
66567;SDS011;53422;49.296;6.900;2022-12-05T12:46:54;10.15;;;3.47;;
66567;SDS011;53422;49.296;6.900;2022-12-05T12:52:13;9.55;;;3.58;;
66567;SDS011;53422;49.296;6.900;2022-12-05T12:57:10;5.30;;;2.05;;
66567;SDS011;53422;49.296;6.900;2022-12-05T12:59:50;4.00;;;2.53;;
66567;SDS011;53422;49.296;6.900;2022-12-05T13:05:49;4.57;;;2.00;;
66567;SDS011;53422;49.296;6.900;2022-12-05T13:11:00;5.25;;;2.13;;
66567;SDS011;53422;49.296;6.900;2022-12-05T13:13:32;3.90;;;2.25;;
66567;SDS011;53422;49.296;6.900;2022-12-05T13:16:01;4.50;;;2.03;;
66567;SDS011;53422;49.296;6.900;2022-12-05T13:18:31;4.25;;;1.83;;
66567;SDS011;53422;49.296;6.900;2022-12-05T13:20:57;4.75;;;2.08;;
66567;SDS011;53422;49.296;6.900;2022-12-05T13:23:26;4.25;;;2.08;;
66567;SDS011;53422;49.296;6.900;2022-12-05T13:25:54;3.08;;;1.60;;
66567;SDS011;53422;49.296;6.900;2022-12-05T13:30:50;2.67;;;1.40;;
66567;SDS011;53422;49.296;6.900;2022-12-05T13:33:27;6.47;;;2.22;;
66567;SDS011;53422;49.296;6.900;2022-12-05T13:36:07;3.80;;;1.70;;
66567;SDS011;53422;49.296;6.900;2022-12-05T13:39:00;4.40;;;1.98;;
66567;SDS011;53422;49.296;6.900;2022-12-05T13:41:48;4.75;;;1.95;;
66567;SDS011;53422;49.296;6.900;2022-12-05T13:44:39;3.55;;;1.80;;
66567;SDS011;53422;49.296;6.900;2022-12-05T13:50:18;4.80;;;2.17;;
66567;SDS011;53422;49.296;6.900;2022-12-05T13:52:58;4.50;;;2.22;;
66567;SDS011;53422;49.296;6.900;2022-12-05T13:55:37;5.53;;;1.83;;
66567;SDS011;53422;49.296;6.900;2022-12-05T14:00:44;4.95;;;1.92;;
66567;SDS011;53422;49.296;6.900;2022-12-05T14:05:57;3.90;;;1.85;;
66567;SDS011;53422;49.296;6.900;2022-12-05T14:08:48;6.28;;;2.47;;
66567;SDS011;53422;49.296;6.900;2022-12-05T14:11:16;3.88;;;2.15;;
66567;SDS011;53422;49.296;6.900;2022-12-05T14:13:42;3.90;;;2.03;;
66567;SDS011;53422;49.296;6.900;2022-12-05T14:24:23;4.70;;;2.15;;
66567;SDS011;53422;49.296;6.900;2022-12-05T14:27:17;3.75;;;1.60;;
66567;SDS011;53422;49.296;6.900;2022-12-05T14:32:34;12.77;;;4.00;;
66567;SDS011;53422;49.296;6.900;2022-12-05T14:40:29;4.65;;;2.42;;
66567;SDS011;53422;49.296;6.900;2022-12-05T14:47:52;3.67;;;1.80;;
66567;SDS011;53422;49.296;6.900;2022-12-05T14:53:44;4.60;;;2.53;;
66567;SDS011;53422;49.296;6.900;2022-12-05T14:56:01;5.82;;;1.92;;
66567;SDS011;53422;49.296;6.900;2022-12-05T15:09:42;6.30;;;1.90;;
66567;SDS011;53422;49.296;6.900;2022-12-05T15:15:14;4.82;;;1.98;;
66567;SDS011;53422;49.296;6.900;2022-12-05T15:23:08;3.08;;;1.58;;
66567;SDS011;53422;49.296;6.900;2022-12-05T15:26:55;3.67;;;1.45;;
66567;SDS011;53422;49.296;6.900;2022-12-05T15:34:20;4.38;;;2.40;;
66567;SDS011;53422;49.296;6.900;2022-12-05T15:36:56;5.03;;;2.70;;
66567;SDS011;53422;49.296;6.900;2022-12-05T15:39:25;5.72;;;2.83;;
66567;SDS011;53422;49.296;6.900;2022-12-05T15:41:52;4.95;;;2.53;;
66567;SDS011;53422;49.296;6.900;2022-12-05T15:44:19;4.40;;;2.58;;
66567;SDS011;53422;49.296;6.900;2022-12-05T15:46:53;3.25;;;1.85;;
66567;SDS011;53422;49.296;6.900;2022-12-05T15:49:21;3.30;;;1.83;;
66567;SDS011;53422;49.296;6.900;2022-12-05T15:51:52;3.65;;;2.15;;
66567;SDS011;53422;49.296;6.900;2022-12-05T15:54:24;3.80;;;1.92;;
66567;SDS011;53422;49.296;6.900;2022-12-05T15:56:58;6.30;;;2.78;;
66567;SDS011;53422;49.296;6.900;2022-12-05T15:59:37;6.75;;;2.60;;
66567;SDS011;53422;49.296;6.900;2022-12-05T16:02:14;5.63;;;2.25;;
66567;SDS011;53422;49.296;6.900;2022-12-05T16:04:51;6.70;;;2.55;;
66567;SDS011;53422;49.296;6.900;2022-12-05T16:07:20;4.47;;;2.30;;
66567;SDS011;53422;49.296;6.900;2022-12-05T16:09:51;5.43;;;2.33;;
66567;SDS011;53422;49.296;6.900;2022-12-05T16:12:34;7.90;;;3.20;;
66567;SDS011;53422;49.296;6.900;2022-12-05T16:15:06;5.55;;;2.40;;
66567;SDS011;53422;49.296;6.900;2022-12-05T16:17:55;6.30;;;2.10;;
66567;SDS011;53422;49.296;6.900;2022-12-05T16:23:00;3.85;;;1.90;;
66567;SDS011;53422;49.296;6.900;2022-12-05T16:25:32;3.92;;;2.03;;
66567;SDS011;53422;49.296;6.900;2022-12-05T16:28:01;4.63;;;1.90;;
66567;SDS011;53422;49.296;6.900;2022-12-05T16:30:40;4.70;;;1.90;;
66567;SDS011;53422;49.296;6.900;2022-12-05T16:33:20;4.22;;;1.70;;
66567;SDS011;53422;49.296;6.900;2022-12-05T16:35:50;7.38;;;2.90;;
66567;SDS011;53422;49.296;6.900;2022-12-05T16:48:41;4.20;;;2.15;;
66567;SDS011;53422;49.296;6.900;2022-12-05T16:51:21;4.38;;;2.30;;
66567;SDS011;53422;49.296;6.900;2022-12-05T16:53:52;4.60;;;2.10;;
66567;SDS011;53422;49.296;6.900;2022-12-05T16:56:23;3.92;;;1.63;;
66567;SDS011;53422;49.296;6.900;2022-12-05T16:58:52;4.03;;;1.60;;
66567;SDS011;53422;49.296;6.900;2022-12-05T17:01:18;3.95;;;1.83;;
66567;SDS011;53422;49.296;6.900;2022-12-05T17:03:49;3.25;;;1.80;;
66567;SDS011;53422;49.296;6.900;2022-12-05T17:06:15;4.43;;;1.30;;
66567;SDS011;53422;49.296;6.900;2022-12-05T17:08:42;2.15;;;1.20;;
66567;SDS011;53422;49.296;6.900;2022-12-05T17:11:18;3.30;;;1.13;;
66567;SDS011;53422;49.296;6.900;2022-12-05T17:13:53;3.25;;;1.60;;
66567;SDS011;53422;49.296;6.900;2022-12-05T17:16:24;2.97;;;1.42;;
66567;SDS011;53422;49.296;6.900;2022-12-05T17:18:53;3.85;;;1.63;;
66567;SDS011;53422;49.296;6.900;2022-12-05T17:21:19;2.65;;;1.52;;
66567;SDS011;53422;49.296;6.900;2022-12-05T17:23:47;4.45;;;1.95;;
66567;SDS011;53422;49.296;6.900;2022-12-05T17:26:15;5.78;;;2.33;;
66567;SDS011;53422;49.296;6.900;2022-12-05T17:28:42;6.38;;;1.80;;
66567;SDS011;53422;49.296;6.900;2022-12-05T17:31:08;5.97;;;2.72;;
66567;SDS011;53422;49.296;6.900;2022-12-05T17:33:40;12.88;;;3.42;;
66567;SDS011;53422;49.296;6.900;2022-12-05T17:36:06;12.45;;;4.05;;
66567;SDS011;53422;49.296;6.900;2022-12-05T17:38:32;5.22;;;2.65;;
66567;SDS011;53422;49.296;6.900;2022-12-05T17:40:57;4.93;;;1.90;;
66567;SDS011;53422;49.296;6.900;2022-12-05T17:43:23;3.78;;;2.00;;
66567;SDS011;53422;49.296;6.900;2022-12-05T17:45:49;4.43;;;2.28;;
66567;SDS011;53422;49.296;6.900;2022-12-05T17:48:15;6.50;;;2.97;;
66567;SDS011;53422;49.296;6.900;2022-12-05T17:50:41;4.47;;;2.03;;
66567;SDS011;53422;49.296;6.900;2022-12-05T17:53:12;6.60;;;3.13;;
66567;SDS011;53422;49.296;6.900;2022-12-05T17:55:39;5.43;;;2.35;;
66567;SDS011;53422;49.296;6.900;2022-12-05T17:58:05;5.32;;;2.10;;
66567;SDS011;53422;49.296;6.900;2022-12-05T18:00:30;3.58;;;1.90;;
66567;SDS011;53422;49.296;6.900;2022-12-05T18:02:56;4.80;;;2.58;;
66567;SDS011;53422;49.296;6.900;2022-12-05T18:05:22;7.35;;;4.35;;
66567;SDS011;53422;49.296;6.900;2022-12-05T18:07:47;11.65;;;5.95;;
66567;SDS011;53422;49.296;6.900;2022-12-05T18:10:15;3.78;;;1.70;;
66567;SDS011;53422;49.296;6.900;2022-12-05T18:12:44;3.08;;;1.52;;
66567;SDS011;53422;49.296;6.900;2022-12-05T18:15:11;6.22;;;2.30;;
66567;SDS011;53422;49.296;6.900;2022-12-05T18:17:36;5.15;;;2.15;;
66567;SDS011;53422;49.296;6.900;2022-12-05T18:20:03;9.38;;;4.13;;
66567;SDS011;53422;49.296;6.900;2022-12-05T18:22:30;5.38;;;2.65;;
66567;SDS011;53422;49.296;6.900;2022-12-05T18:24:56;5.97;;;2.80;;
66567;SDS011;53422;49.296;6.900;2022-12-05T18:27:22;9.93;;;4.03;;
66567;SDS011;53422;49.296;6.900;2022-12-05T18:29:51;5.07;;;2.53;;